Time;durP1;ratioP1;P1;durP2;ratioP2;P2;SDS_P1;SDS_P2;PMS_P1;PMS_P2;Temp;Humidity;BMP_temperature;BMP_pressure;BME280_temperature;BME280_humidity;BME280_pressure;Samples;Min_cycle;Max_cycle;Signal;HPM_P1;HPM_P2
2022/01/07 00:01:36;;;;;;;5.95;1.98;;;;;;;1.52;49.28;99157.16;4487691;32;20084;-84
2022/01/07 00:04:02;;;;;;;9.18;2.30;;;;;;;1.73;48.75;99149.09;4488043;31;20084;-84
2022/01/07 00:06:28;;;;;;;8.52;1.87;;;;;;;1.63;48.97;99154.44;4486953;32;20075;-84
2022/01/07 00:08:53;;;;;;;7.10;1.90;;;;;;;1.37;49.55;99155.59;4487830;31;20141;-85
2022/01/07 00:11:19;;;;;;;7.90;2.20;;;;;;;1.66;49.17;99163.06;4487130;31;20085;-84
2022/01/07 00:13:45;;;;;;;8.32;1.95;;;;;;;1.69;49.19;99172.53;4487749;31;20084;-85
2022/01/07 00:16:11;;;;;;;8.50;2.00;;;;;;;1.88;48.54;99180.97;4487676;31;20103;-85
2022/01/07 00:18:39;;;;;;;8.57;2.47;;;;;;;1.65;49.27;99176.91;4487748;31;20123;-85
2022/01/07 00:21:05;;;;;;;8.38;2.08;;;;;;;1.65;49.25;99173.47;4486463;32;20179;-84
2022/01/07 00:23:31;;;;;;;8.85;2.25;;;;;;;1.79;48.88;99174.12;4487523;31;20092;-84
2022/01/07 00:25:56;;;;;;;8.63;2.45;;;;;;;1.78;48.76;99175.03;4487580;31;20333;-84
2022/01/07 00:28:22;;;;;;;7.95;2.20;;;;;;;1.61;49.16;99169.19;4487576;32;20131;-85
2022/01/07 00:30:48;;;;;;;6.65;1.98;;;;;;;1.51;49.39;99178.81;4486441;32;20104;-84
2022/01/07 00:33:14;;;;;;;6.00;1.87;;;;;;;1.45;49.49;99184.06;4487591;31;20092;-84
2022/01/07 00:35:39;;;;;;;5.78;1.90;;;;;;;1.45;49.66;99187.53;4486402;32;20101;-84
2022/01/07 00:38:05;;;;;;;9.07;2.20;;;;;;;1.41;49.63;99188.47;4487422;31;20100;-85
2022/01/07 00:40:31;;;;;;;10.10;2.20;;;;;;;1.33;49.96;99198.94;4486317;32;20457;-85
2022/01/07 00:42:56;;;;;;;8.85;2.12;;;;;;;1.44;49.62;99211.78;4487350;32;20092;-84
2022/01/07 00:45:23;;;;;;;7.65;2.30;;;;;;;1.30;50.17;99205.88;4486218;32;20192;-84
2022/01/07 00:47:49;;;;;;;6.47;1.90;;;;;;;1.38;50.16;99202.31;4487509;31;20096;-84
2022/01/07 00:50:20;;;;;;;8.68;2.17;;;;;;;1.45;49.73;99200.53;4487457;31;20127;-84
2022/01/07 00:52:45;;;;;;;8.32;1.87;;;;;;;1.23;50.35;99199.03;4487511;31;20415;-85
2022/01/07 00:55:11;;;;;;;9.93;2.05;;;;;;;1.31;50.24;99202.38;4486286;32;20122;-84
2022/01/07 00:57:37;;;;;;;7.68;1.90;;;;;;;1.52;49.63;99206.50;4487242;31;20455;-84
2022/01/07 01:00:09;;;;;;;10.23;2.05;;;;;;;1.55;49.53;99207.31;4486210;32;20147;-84
2022/01/07 01:02:35;;;;;;;10.82;2.12;;;;;;;1.65;49.21;99209.81;4487390;31;20095;-84
2022/01/07 01:05:01;;;;;;;8.98;2.05;;;;;;;1.51;49.20;99216.03;4486135;32;20131;-84
2022/01/07 01:07:27;;;;;;;6.45;1.70;;;;;;;1.59;49.25;99210.75;4487273;31;20101;-84
2022/01/07 01:09:52;;;;;;;11.70;2.42;;;;;;;1.47;49.51;99196.16;4486173;32;20181;-84
2022/01/07 01:12:18;;;;;;;8.57;2.12;;;;;;;1.47;49.67;99201.37;4487088;31;20089;-84
2022/01/07 01:14:43;;;;;;;8.73;1.90;;;;;;;1.57;49.49;99202.97;4486092;32;20124;-84
2022/01/07 01:17:09;;;;;;;6.45;1.77;;;;;;;1.49;49.69;99193.56;4485941;32;20134;-84
2022/01/07 01:19:34;;;;;;;8.68;2.20;;;;;;;1.32;50.15;99184.22;4487358;31;20100;-85
2022/01/07 01:22:00;;;;;;;9.23;2.03;;;;;;;1.25;50.34;99176.50;4484947;32;20467;-84
2022/01/07 01:24:25;;;;;;;8.23;2.05;;;;;;;1.40;50.33;99188.47;4486688;31;20096;-84
2022/01/07 01:26:51;;;;;;;7.87;2.10;;;;;;;1.22;50.68;99190.38;4487126;31;20091;-85
2022/01/07 01:29:16;;;;;;;8.00;2.05;;;;;;;1.50;50.03;99180.53;4487236;31;20489;-84
2022/01/07 01:31:42;;;;;;;9.52;2.37;;;;;;;1.27;50.60;99169.56;4487268;31;20104;-84
2022/01/07 01:34:07;;;;;;;7.50;1.85;;;;;;;1.15;50.66;99165.38;4487125;31;20137;-85
2022/01/07 01:36:33;;;;;;;8.07;1.92;;;;;;;1.25;50.31;99176.50;4485883;32;20151;-84
2022/01/07 01:38:59;;;;;;;7.05;1.90;;;;;;;1.25;50.23;99186.88;4487173;32;20353;-85
2022/01/07 01:41:25;;;;;;;8.55;2.28;;;;;;;1.38;49.96;99183.28;4487105;31;20138;-85
2022/01/07 01:43:50;;;;;;;8.63;2.10;;;;;;;1.46;49.86;99175.41;4487047;31;20088;-84
2022/01/07 01:46:16;;;;;;;10.68;2.20;;;;;;;1.04;50.94;99168.06;4487034;31;20122;-84
2022/01/07 01:48:42;;;;;;;7.15;2.20;;;;;;;1.06;51.04;99166.31;4486974;31;20243;-84
2022/01/07 01:51:08;;;;;;;8.40;2.00;;;;;;;1.23;50.66;99178.25;4486062;32;20183;-84
2022/01/07 01:53:34;;;;;;;9.25;2.40;;;;;;;1.12;50.99;99193.94;4486963;31;20416;-85
2022/01/07 01:55:59;;;;;;;11.38;2.53;;;;;;;1.15;51.12;99196.50;4487190;31;20111;-84
2022/01/07 01:58:25;;;;;;;8.40;2.08;;;;;;;1.31;50.86;99211.06;4487121;31;20134;-84
2022/01/07 02:00:50;;;;;;;8.43;2.00;;;;;;;1.16;51.28;99196.50;4487097;31;20084;-85
2022/01/07 02:03:15;;;;;;;9.15;2.53;;;;;;;1.15;51.22;99196.50;4487240;31;20329;-85
2022/01/07 02:05:41;;;;;;;12.23;2.35;;;;;;;1.04;51.41;99203.53;4487203;31;20100;-85
2022/01/07 02:08:08;;;;;;;8.38;2.62;;;;;;;1.35;50.59;99211.84;4486919;31;20142;-85
2022/01/07 02:10:33;;;;;;;8.27;2.22;;;;;;;1.52;50.22;99222.06;4487027;31;20113;-85
2022/01/07 02:12:59;;;;;;;10.50;2.35;;;;;;;1.48;50.23;99223.84;4485536;32;20115;-85
2022/01/07 02:15:24;;;;;;;6.37;2.15;;;;;;;1.54;50.14;99225.50;4486831;31;20100;-85
2022/01/07 02:17:50;;;;;;;9.23;2.30;;;;;;;1.34;50.50;99220.53;4486637;31;20104;-85
2022/01/07 02:20:18;;;;;;;10.55;2.75;;;;;;;1.44;50.15;99223.91;4486733;31;20435;-85
2022/01/07 02:22:44;;;;;;;9.68;2.30;;;;;;;1.25;50.60;99224.06;4486599;31;20115;-84
2022/01/07 02:25:10;;;;;;;7.43;2.00;;;;;;;1.26;50.46;99227.56;4486617;31;20108;-84
2022/01/07 02:27:42;;;;;;;7.12;2.20;;;;;;;1.09;50.76;99217.31;4486574;31;20100;-84
2022/01/07 02:30:09;;;;;;;9.15;2.30;;;;;;;1.21;50.65;99224.13;4486654;31;20147;-84
2022/01/07 02:32:35;;;;;;;8.88;2.22;;;;;;;1.31;50.30;99211.06;4486432;31;20149;-84
2022/01/07 02:35:00;;;;;;;6.78;2.03;;;;;;;1.08;50.75;99226.84;4485853;31;20084;-84
2022/01/07 02:37:26;;;;;;;10.27;2.33;;;;;;;1.42;50.22;99230.84;4486336;31;20088;-84
2022/01/07 02:39:52;;;;;;;8.85;2.42;;;;;;;1.63;49.49;99233.22;4486366;31;20106;-84
2022/01/07 02:42:17;;;;;;;7.28;2.22;;;;;;;1.27;50.20;99234.44;4486447;31;20076;-84
2022/01/07 02:44:43;;;;;;;9.55;2.10;;;;;;;1.46;49.57;99224.75;4486190;31;20136;-84
2022/01/07 02:47:09;;;;;;;8.60;2.20;;;;;;;1.62;48.41;99226.28;4486324;31;20088;-84
2022/01/07 02:49:34;;;;;;;7.10;2.17;;;;;;;1.73;48.05;99224.41;4485126;32;20088;-85
2022/01/07 02:52:00;;;;;;;8.32;2.28;;;;;;;1.82;48.10;99225.22;4486326;32;20373;-84
2022/01/07 02:54:25;;;;;;;8.23;2.33;;;;;;;1.90;47.29;99226.81;4486202;31;20092;-85
2022/01/07 02:56:51;;;;;;;10.30;2.08;;;;;;;1.72;47.18;99219.25;4486069;31;20198;-84
2022/01/07 02:59:17;;;;;;;9.85;2.40;;;;;;;1.60;47.11;99216.78;4485041;32;20084;-85
2022/01/07 03:01:42;;;;;;;9.15;2.15;;;;;;;1.77;46.92;99220.91;4486162;31;20333;-85
2022/01/07 03:04:08;;;;;;;7.82;2.30;;;;;;;1.89;46.77;99226.84;4485991;31;20137;-85
2022/01/07 03:06:35;;;;;;;8.50;1.87;;;;;;;1.64;47.07;99228.88;4471651;32;20093;-85
2022/01/07 03:09:01;;;;;;;11.05;1.92;;;;;;;1.86;47.03;99226.88;4486070;31;20391;-85
2022/01/07 03:11:27;;;;;;;9.70;1.87;;;;;;;1.82;47.25;99244.25;4484857;32;20080;-85
2022/01/07 03:13:52;;;;;;;6.43;2.10;;;;;;;1.93;47.23;99232.00;4486101;31;20146;-85
2022/01/07 03:16:17;;;;;;;7.47;2.15;;;;;;;1.98;46.46;99225.88;4484763;32;20097;-85
2022/01/07 03:18:43;;;;;;;9.57;2.22;;;;;;;1.92;46.55;99225.06;4485799;32;20115;-85
2022/01/07 03:21:09;;;;;;;8.95;1.60;;;;;;;2.15;45.53;99227.38;4484619;32;20091;-85
2022/01/07 03:23:36;;;;;;;7.40;2.25;;;;;;;2.02;45.57;99232.75;4485658;31;20456;-85
2022/01/07 03:26:02;;;;;;;9.68;2.00;;;;;;;1.92;45.71;99235.47;4484915;32;20452;-84
2022/01/07 03:28:28;;;;;;;8.27;2.22;;;;;;;1.88;45.56;99238.13;4485898;31;20152;-85
2022/01/07 03:30:53;;;;;;;7.90;2.00;;;;;;;1.82;45.82;99233.84;4485642;31;20079;-85
2022/01/07 03:33:19;;;;;;;7.43;1.87;;;;;;;1.81;46.00;99236.47;4485681;31;20107;-84
2022/01/07 03:35:45;;;;;;;8.45;2.00;;;;;;;1.84;46.11;99241.63;4484394;32;20108;-85
2022/01/07 03:38:11;;;;;;;8.38;2.08;;;;;;;1.93;45.96;99251.91;4485544;31;20505;-85
2022/01/07 03:40:37;;;;;;;8.43;1.98;;;;;;;1.97;45.64;99243.22;4485442;31;20080;-85
2022/01/07 03:43:03;;;;;;;8.52;2.78;;;;;;;1.67;46.01;99252.22;4485589;32;20514;-85
2022/01/07 03:45:28;;;;;;;7.32;1.90;;;;;;;1.63;46.73;99261.78;4485803;31;20084;-85
2022/01/07 03:47:54;;;;;;;8.15;2.10;;;;;;;1.84;46.51;99257.22;4487786;31;20089;-85
2022/01/07 03:50:22;;;;;;;6.97;2.05;;;;;;;1.84;46.41;99257.22;4487923;31;20148;-85
2022/01/07 03:52:48;;;;;;;6.60;2.20;;;;;;;1.72;46.18;99259.09;4486728;32;20139;-85
2022/01/07 03:55:16;;;;;;;10.15;2.55;;;;;;;1.67;46.41;99262.59;4487791;31;20118;-85
2022/01/07 03:57:41;;;;;;;12.85;2.30;;;;;;;1.90;46.47;99263.19;4487766;31;20106;-86
2022/01/07 04:00:13;;;;;;;9.40;2.10;;;;;;;1.85;46.38;99266.72;4487654;32;20081;-85
2022/01/07 04:02:39;;;;;;;11.70;2.05;;;;;;;1.99;46.13;99261.34;4486596;32;20100;-86
2022/01/07 04:05:06;;;;;;;7.47;2.05;;;;;;;1.86;45.30;99258.06;4487656;31;20127;-86
2022/01/07 04:07:31;;;;;;;8.05;1.80;;;;;;;1.88;45.05;99256.31;4487876;31;20498;-85
2022/01/07 04:10:00;;;;;;;7.97;2.00;;;;;;;2.00;44.73;99261.34;4486494;32;20080;-85
2022/01/07 04:12:26;;;;;;;7.95;2.17;;;;;;;1.84;45.10;99270.22;4486465;32;20130;-85
2022/01/07 04:15:02;;;;;;;7.72;1.85;;;;;;;1.76;45.28;99257.31;4487727;31;20092;-85
2022/01/07 04:17:27;;;;;;;9.65;2.00;;;;;;;1.59;45.65;99262.69;4487648;31;20080;-85
2022/01/07 04:19:53;;;;;;;7.07;2.05;;;;;;;1.70;45.21;99267.75;4487642;31;20092;-85
2022/01/07 04:22:18;;;;;;;9.80;1.95;;;;;;;1.82;45.15;99259.84;4487549;31;20096;-85
2022/01/07 04:24:44;;;;;;;8.07;2.28;;;;;;;1.76;45.21;99263.34;4487466;31;20122;-85
2022/01/07 04:27:09;;;;;;;7.40;1.90;;;;;;;1.69;45.03;99269.50;4487588;31;20102;-86
2022/01/07 04:29:35;;;;;;;6.97;2.20;;;;;;;1.55;45.15;99266.19;4487466;32;20106;-86
2022/01/07 04:32:02;;;;;;;7.70;2.00;;;;;;;1.65;44.90;99260.03;4487458;32;20107;-85
2022/01/07 04:34:27;;;;;;;6.77;2.13;;;;;;;1.68;44.31;99270.37;4487716;31;20096;-85
2022/01/07 04:36:53;;;;;;;9.13;2.10;;;;;;;1.81;44.25;99257.25;4487355;31;20507;-84
2022/01/07 04:39:18;;;;;;;5.85;2.17;;;;;;;1.92;44.50;99265.78;4487555;31;20103;-85
2022/01/07 04:41:43;;;;;;;5.30;1.50;;;;;;;1.86;44.40;99264.13;4487317;31;20100;-85
2022/01/07 04:44:09;;;;;;;7.75;2.05;;;;;;;1.91;43.29;99258.84;4487619;31;20084;-85
2022/01/07 04:46:34;;;;;;;8.27;1.98;;;;;;;1.84;42.89;99259.81;4487661;31;20084;-85
2022/01/07 04:49:00;;;;;;;9.75;2.03;;;;;;;1.87;43.21;99267.56;4486137;32;20103;-85
2022/01/07 04:51:25;;;;;;;9.10;1.98;;;;;;;1.88;43.44;99277.94;4487530;31;20088;-85
2022/01/07 04:53:50;;;;;;;9.85;1.98;;;;;;;1.99;43.35;99276.94;4486313;32;20104;-85
2022/01/07 04:56:16;;;;;;;6.10;1.73;;;;;;;1.94;43.03;99279.63;4486993;31;20091;-85
2022/01/07 04:58:41;;;;;;;9.93;2.62;;;;;;;1.97;43.07;99279.59;4487309;31;20446;-85
2022/01/07 05:01:07;;;;;;;7.93;2.30;;;;;;;1.99;43.28;99283.03;4487284;32;20142;-85
2022/01/07 05:03:32;;;;;;;8.20;2.03;;;;;;;2.10;43.30;99283.72;4487476;31;20123;-85
2022/01/07 05:08:46;;;;;;;8.63;2.10;;;;;;;2.17;43.57;99272.38;4453766;32;20115;-85
2022/01/07 05:11:11;;;;;;;7.45;1.80;;;;;;;2.16;42.81;99273.28;4453505;32;20484;-85
2022/01/07 05:13:37;;;;;;;8.07;2.20;;;;;;;2.21;43.03;99277.56;4453754;32;20109;-85
2022/01/07 05:16:02;;;;;;;7.72;1.90;;;;;;;2.25;43.18;99272.28;4453775;32;20503;-84
2022/01/07 05:18:28;;;;;;;10.32;2.10;;;;;;;2.30;43.54;99269.66;4453648;32;20100;-84
2022/01/07 05:20:53;;;;;;;7.70;2.08;;;;;;;2.32;43.35;99276.53;4453688;32;20423;-85
2022/01/07 05:23:19;;;;;;;7.60;1.85;;;;;;;2.32;43.46;99271.34;4453583;32;20169;-84
2022/01/07 05:25:45;;;;;;;6.87;2.17;;;;;;;2.29;43.54;99271.38;4453634;32;20155;-85
2022/01/07 05:28:10;;;;;;;7.75;1.62;;;;;;;2.26;43.38;99266.22;4440725;32;20408;-84
2022/01/07 05:30:36;;;;;;;8.30;1.85;;;;;;;2.32;42.68;99276.53;4453557;32;20503;-84
2022/01/07 05:33:02;;;;;;;6.00;1.90;;;;;;;2.35;43.35;99279.06;4453709;32;20251;-85
2022/01/07 05:35:29;;;;;;;10.32;2.12;;;;;;;2.37;43.79;99277.31;4453628;32;20476;-85
2022/01/07 05:37:54;;;;;;;8.60;2.25;;;;;;;2.38;43.98;99278.19;4453503;32;20111;-85
2022/01/07 05:40:20;;;;;;;6.20;1.55;;;;;;;2.39;44.15;99281.66;4453485;32;20492;-85
2022/01/07 05:42:45;;;;;;;8.07;1.98;;;;;;;2.37;44.62;99290.31;4453599;32;20088;-84
2022/01/07 05:45:11;;;;;;;5.45;1.42;;;;;;;2.41;44.92;99285.09;4462066;32;20088;-85
2022/01/07 05:47:36;;;;;;;9.10;1.87;;;;;;;2.41;44.04;99285.94;4485759;32;20137;-84
2022/01/07 05:50:02;;;;;;;7.78;1.55;;;;;;;2.37;44.17;99289.47;4486758;31;20115;-81
2022/01/07 05:52:27;;;;;;;7.97;2.20;;;;;;;2.41;44.23;99300.69;4487159;31;20087;-81
2022/01/07 05:54:53;;;;;;;7.75;2.47;;;;;;;2.35;43.17;99288.62;4487026;31;20136;-80
2022/01/07 05:57:18;;;;;;;6.50;1.65;;;;;;;2.36;42.04;99287.75;4485675;32;20140;-81
2022/01/07 05:59:43;;;;;;;7.82;2.30;;;;;;;2.39;42.00;99289.44;4486916;32;20092;-81
2022/01/07 06:02:09;;;;;;;5.60;1.67;;;;;;;2.38;42.31;99288.59;4485742;32;20115;-81
2022/01/07 06:04:35;;;;;;;8.98;1.85;;;;;;;2.38;42.37;99296.41;4486918;31;20076;-81
2022/01/07 06:07:01;;;;;;;7.60;1.67;;;;;;;2.42;42.65;99294.63;4486841;31;20092;-81
2022/01/07 06:09:26;;;;;;;5.65;1.42;;;;;;;2.44;42.41;99298.06;4484757;32;20385;-81
2022/01/07 06:11:52;;;;;;;6.47;1.80;;;;;;;2.43;42.12;99304.12;4486918;31;20142;-80
2022/01/07 06:14:17;;;;;;;7.45;1.70;;;;;;;2.44;42.24;99303.25;4486723;31;20076;-81
2022/01/07 06:16:43;;;;;;;5.85;1.58;;;;;;;2.15;42.37;99297.53;4486590;31;20117;-80
2022/01/07 06:19:08;;;;;;;6.28;1.60;;;;;;;2.34;41.13;99294.72;4486730;31;20089;-80
2022/01/07 06:21:33;;;;;;;8.80;1.83;;;;;;;2.43;40.32;99304.12;4486664;31;20088;-80
2022/01/07 06:23:59;;;;;;;9.38;1.92;;;;;;;2.40;40.70;99299.84;4486517;31;20081;-80
2022/01/07 06:26:24;;;;;;;12.13;2.20;;;;;;;2.47;41.27;99300.59;4485380;32;20121;-80
2022/01/07 06:28:51;;;;;;;6.95;1.80;;;;;;;2.43;41.36;99310.19;4486519;31;20091;-81
2022/01/07 06:31:16;;;;;;;9.50;2.22;;;;;;;2.49;41.03;99317.03;4486613;31;20435;-80
2022/01/07 06:33:42;;;;;;;7.68;1.90;;;;;;;2.53;40.79;99317.00;4472162;32;20167;-80
2022/01/07 06:36:07;;;;;;;5.50;1.70;;;;;;;2.52;41.23;99317.88;4486462;31;20089;-80
2022/01/07 06:38:33;;;;;;;7.28;1.60;;;;;;;2.48;41.06;99321.38;4471982;32;20134;-81
2022/01/07 06:40:58;;;;;;;9.15;2.03;;;;;;;2.49;40.92;99324.84;4485268;32;20126;-80
2022/01/07 06:43:24;;;;;;;5.75;1.50;;;;;;;2.56;40.67;99323.88;4486418;31;20451;-81
2022/01/07 06:45:49;;;;;;;5.80;1.37;;;;;;;2.62;40.71;99333.34;4486495;31;20076;-82
2022/01/07 06:48:15;;;;;;;7.18;1.60;;;;;;;2.67;41.18;99331.56;4485147;32;20440;-84
2022/01/07 06:50:41;;;;;;;6.70;1.48;;;;;;;2.70;41.07;99332.34;4486248;31;20119;-86
2022/01/07 06:53:07;;;;;;;6.65;1.80;;;;;;;2.76;40.54;99339.22;4485030;31;20728;-81
2022/01/07 06:55:32;;;;;;;5.70;1.75;;;;;;;2.68;40.25;99333.25;4488925;31;20112;-80
2022/01/07 06:57:58;;;;;;;7.37;1.80;;;;;;;2.80;40.55;99338.31;4478286;31;20405;-81
2022/01/07 07:00:24;;;;;;;6.25;1.80;;;;;;;2.84;40.51;99340.00;4491877;31;20080;-81
2022/01/07 07:02:49;;;;;;;6.70;1.55;;;;;;;2.82;40.41;99335.66;4495430;31;20593;-81
2022/01/07 07:05:15;;;;;;;6.47;1.70;;;;;;;2.99;40.29;99332.81;4494310;31;20076;-81
2022/01/07 07:07:40;;;;;;;6.15;1.70;;;;;;;3.01;40.38;99339.72;4489696;31;20145;-81
2022/01/07 07:10:06;;;;;;;6.87;1.98;;;;;;;3.07;40.58;99342.25;4498502;31;20088;-80
2022/01/07 07:12:31;;;;;;;8.93;1.85;;;;;;;3.13;40.60;99344.75;4490710;31;20128;-79
2022/01/07 07:14:57;;;;;;;8.77;1.85;;;;;;;3.17;40.36;99345.56;4491640;31;20366;-78
2022/01/07 07:17:24;;;;;;;8.55;2.35;;;;;;;3.24;39.96;99344.56;4481391;31;20136;-79
2022/01/07 07:19:50;;;;;;;11.45;2.00;;;;;;;3.27;40.06;99341.06;4492792;31;20088;-79
2022/01/07 07:22:15;;;;;;;6.65;2.15;;;;;;;3.35;40.31;99357.44;4479341;31;20114;-81
2022/01/07 07:24:41;;;;;;;8.10;1.90;;;;;;;3.37;40.59;99341.78;4495907;31;20169;-82
2022/01/07 07:27:06;;;;;;;6.10;1.70;;;;;;;3.33;39.88;99331.41;4493911;31;20093;-82
2022/01/07 07:29:32;;;;;;;8.48;2.20;;;;;;;3.39;39.71;99348.69;4486394;31;20100;-82
2022/01/07 07:31:59;;;;;;;9.45;2.20;;;;;;;3.49;40.89;99346.78;4490634;31;20079;-82
2022/01/07 07:34:56;;;;;;;7.65;1.95;;;;;;;3.44;40.88;99348.59;4479963;32;20076;-81
2022/01/07 07:37:18;;;;;;;8.75;1.77;;;;;;;3.44;39.92;99349.47;4482867;31;20092;-81
2022/01/07 07:39:44;;;;;;;6.12;1.70;;;;;;;3.58;39.51;99351.84;4494800;31;20080;-80
2022/01/07 07:42:10;;;;;;;7.85;2.08;;;;;;;3.58;39.26;99344.03;4479522;31;20140;-81
2022/01/07 07:44:35;;;;;;;7.90;1.90;;;;;;;3.65;39.28;99349.97;4498497;31;20088;-84
2022/01/07 07:47:02;;;;;;;9.65;2.62;;;;;;;3.67;39.50;99349.09;4502783;31;20085;-82
2022/01/07 07:49:28;;;;;;;10.18;2.12;;;;;;;3.78;38.56;99348.03;4502859;31;20163;-82
2022/01/07 07:51:53;;;;;;;7.45;1.75;;;;;;;3.79;38.46;99350.59;4502672;31;20132;-82
2022/01/07 07:54:19;;;;;;;6.47;1.83;;;;;;;3.76;38.52;99357.62;4502799;31;20083;-82
2022/01/07 07:56:44;;;;;;;5.75;1.80;;;;;;;3.82;38.36;99349.69;4502818;31;20080;-82
2022/01/07 07:59:10;;;;;;;9.07;2.22;;;;;;;3.91;38.12;99352.97;4502772;31;20092;-82
2022/01/07 08:01:36;;;;;;;8.82;2.25;;;;;;;3.98;37.92;99360.69;4503512;31;20111;-82
2022/01/07 08:04:01;;;;;;;10.60;2.33;;;;;;;4.01;38.06;99365.84;4503632;31;20106;-82
2022/01/07 08:06:27;;;;;;;8.10;2.22;;;;;;;4.01;38.09;99358.03;4503496;31;20368;-82
2022/01/07 08:08:52;;;;;;;6.68;1.87;;;;;;;4.07;37.80;99355.31;4503556;31;20112;-82
2022/01/07 08:11:18;;;;;;;6.68;1.87;;;;;;;4.05;37.86;99357.94;4503562;31;20126;-82
2022/01/07 08:16:27;;;;;;;7.37;2.00;;;;;;;4.15;37.83;99358.59;4491275;31;20160;-82
2022/01/07 08:18:54;;;;;;;6.80;2.35;;;;;;;4.18;37.90;99360.31;4503346;31;20488;-82
2022/01/07 08:21:21;;;;;;;7.82;2.00;;;;;;;4.23;37.35;99355.84;4476141;31;20492;-82
2022/01/07 08:23:47;;;;;;;5.72;2.10;;;;;;;4.27;37.32;99357.53;4503137;31;20426;-82
2022/01/07 08:26:14;;;;;;;7.50;2.62;;;;;;;4.26;37.20;99363.63;4489045;31;20128;-82
2022/01/07 08:28:47;;;;;;;8.80;2.40;;;;;;;4.23;37.78;99367.16;4489145;31;20482;-83
2022/01/07 08:36:29;;;;;;;10.38;3.17;;;;;;;4.23;37.58;99366.28;4503495;31;20185;-82
2022/01/07 08:38:55;;;;;;;11.63;4.00;;;;;;;4.29;38.03;99358.38;4488931;31;20100;-82
2022/01/07 08:41:23;;;;;;;11.00;3.10;;;;;;;4.29;37.91;99374.00;4503124;31;20223;-82
2022/01/07 08:43:48;;;;;;;10.95;3.60;;;;;;;4.29;38.42;99366.19;4503240;31;20485;-82
2022/01/07 08:46:14;;;;;;;10.45;3.40;;;;;;;4.34;38.60;99362.56;4503254;31;20096;-82
2022/01/07 08:48:39;;;;;;;11.82;3.10;;;;;;;4.28;38.76;99375.75;4503284;31;20114;-82
2022/01/07 08:51:06;;;;;;;13.40;3.65;;;;;;;4.34;38.92;99372.16;4489012;31;20106;-82
2022/01/07 08:53:31;;;;;;;11.20;3.72;;;;;;;4.37;38.61;99377.31;4488816;31;20367;-82
2022/01/07 08:55:57;;;;;;;9.35;3.03;;;;;;;4.41;38.67;99378.97;4488667;31;20120;-82
2022/01/07 08:58:23;;;;;;;12.77;3.62;;;;;;;4.41;39.07;99372.91;4488647;31;20151;-82
2022/01/07 09:00:48;;;;;;;11.00;3.62;;;;;;;4.40;39.35;99372.03;4488782;31;20117;-82
2022/01/07 09:03:14;;;;;;;13.15;3.87;;;;;;;4.41;39.36;99372.91;4503102;31;20076;-82
2022/01/07 09:05:39;;;;;;;13.48;4.03;;;;;;;4.47;39.46;99375.37;4503042;31;20093;-82
2022/01/07 09:08:10;;;;;;;10.32;3.87;;;;;;;4.37;39.77;99368.66;4488803;31;20107;-82
2022/01/07 09:10:36;;;;;;;10.25;3.85;;;;;;;4.42;39.68;99364.19;4489437;31;20091;-82
2022/01/07 09:13:01;;;;;;;10.48;3.72;;;;;;;4.41;39.66;99358.09;4488742;31;20104;-82
2022/01/07 09:15:27;;;;;;;14.20;4.28;;;;;;;4.25;39.64;99354.97;4503139;31;20153;-82
2022/01/07 09:17:52;;;;;;;10.27;3.22;;;;;;;4.32;39.65;99355.69;4503183;31;20149;-82
2022/01/07 09:20:20;;;;;;;10.35;3.70;;;;;;;4.42;39.42;99358.97;4488959;31;20101;-82
2022/01/07 09:22:46;;;;;;;;;;;;;;;4.43;39.34;99358.09;4503508;31;20092;-82
2022/01/07 09:25:11;;;;;;;9.02;2.87;;;;;;;4.56;38.79;99348.22;4503353;31;19983;-82
2022/01/07 09:27:38;;;;;;;8.93;3.08;;;;;;;4.57;38.21;99345.59;4503164;31;20079;-82
2022/01/07 09:30:04;;;;;;;9.77;3.42;;;;;;;4.56;37.66;99343.91;4503265;31;20131;-82
2022/01/07 09:32:30;;;;;;;9.90;3.00;;;;;;;4.51;37.46;99345.72;4503209;31;20083;-82
2022/01/07 09:34:55;;;;;;;9.50;3.12;;;;;;;4.56;37.20;99333.47;4503145;31;20088;-82
2022/01/07 09:37:20;;;;;;;9.55;3.00;;;;;;;4.52;37.05;99335.28;4502798;31;20166;-82
2022/01/07 09:39:46;;;;;;;10.98;3.40;;;;;;;4.58;37.09;99336.00;4488798;31;20096;-82
2022/01/07 09:42:11;;;;;;;10.85;3.58;;;;;;;4.59;36.84;99332.53;4503087;31;20076;-82
2022/01/07 09:44:41;;;;;;;10.70;3.65;;;;;;;4.66;36.96;99336.72;4474323;31;20115;-82
2022/01/07 09:47:08;;;;;;;10.77;3.75;;;;;;;4.79;37.03;99335.56;4488797;31;20104;-82
2022/01/07 09:49:34;;;;;;;13.05;3.33;;;;;;;4.75;37.14;99330.44;4488470;31;20155;-82
2022/01/07 09:52:03;;;;;;;11.32;3.35;;;;;;;4.77;37.09;99320.81;4488560;31;20560;-82
2022/01/07 09:54:29;;;;;;;14.50;3.42;;;;;;;4.84;36.88;99325.88;4502718;31;20731;-82
2022/01/07 09:56:54;;;;;;;9.10;3.05;;;;;;;4.88;36.89;99317.06;4502816;31;20107;-82
2022/01/07 09:59:20;;;;;;;9.63;3.00;;;;;;;4.78;36.68;99312.97;4502765;31;20106;-82
2022/01/07 10:02:03;;;;;;;11.63;3.50;;;;;;;4.91;36.21;99316.16;4502619;31;20389;-82
2022/01/07 10:04:33;;;;;;;10.70;3.30;;;;;;;4.94;36.09;99313.47;4502748;31;20494;-82
2022/01/07 10:07:24;;;;;;;9.82;2.90;;;;;;;5.02;35.74;99308.06;4502767;31;20085;-82
2022/01/07 10:10:05;;;;;;;10.98;3.08;;;;;;;5.02;35.90;99302.84;4488294;31;20110;-82
2022/01/07 10:12:34;;;;;;;9.95;3.25;;;;;;;5.02;36.00;99302.84;4502625;31;20083;-82
2022/01/07 10:15:14;;;;;;;10.73;3.40;;;;;;;4.97;36.13;99304.72;4488203;31;20148;-82
2022/01/07 10:17:40;;;;;;;7.78;2.87;;;;;;;5.14;35.96;99292.13;4488176;31;20169;-82
2022/01/07 10:20:07;;;;;;;9.52;3.22;;;;;;;5.18;35.79;99296.38;4502519;31;20467;-82
2022/01/07 10:23:14;;;;;;;11.25;3.58;;;;;;;5.25;35.30;99297.94;4488298;31;20432;-82
2022/01/07 10:25:44;;;;;;;9.50;2.80;;;;;;;5.24;35.49;99283.16;4409913;32;20101;-82
2022/01/07 10:28:13;;;;;;;9.93;3.33;;;;;;;5.26;35.96;99291.78;4409559;32;20106;-82
2022/01/07 10:30:40;;;;;;;10.27;2.80;;;;;;;5.23;36.02;99283.19;4422353;32;20205;-82
2022/01/07 10:33:21;;;;;;;10.23;2.78;;;;;;;5.24;35.91;99280.53;4422222;32;20242;-82
2022/01/07 10:35:52;;;;;;;10.35;3.30;;;;;;;5.34;36.04;99273.31;4409539;32;20106;-82
2022/01/07 10:38:25;;;;;;;8.82;2.67;;;;;;;5.33;36.18;99266.38;4396644;32;20597;-82
2022/01/07 10:40:52;;;;;;;12.63;3.20;;;;;;;5.40;35.87;99259.25;4409447;32;20109;-82
2022/01/07 10:43:30;;;;;;;10.20;3.13;;;;;;;5.31;36.33;99262.94;4409433;32;20119;-82
2022/01/07 10:45:56;;;;;;;10.70;3.53;;;;;;;5.35;36.14;99248.03;4422177;32;20727;-82
2022/01/07 10:48:43;;;;;;;10.43;2.70;;;;;;;5.46;36.10;99251.25;4409408;32;20179;-82
2022/01/07 10:51:11;;;;;;;9.85;2.80;;;;;;;5.42;36.14;99241.78;4421573;32;20090;-82
2022/01/07 10:53:37;;;;;;;9.63;3.20;;;;;;;5.42;36.21;99244.38;4409183;32;20647;-82
2022/01/07 10:56:10;;;;;;;10.05;3.08;;;;;;;5.44;35.96;99248.66;4398091;32;20106;-82
2022/01/07 10:58:45;;;;;;;10.98;3.10;;;;;;;5.45;36.01;99237.31;4407358;31;20581;-82
2022/01/07 11:01:41;;;;;;;11.18;3.00;;;;;;;5.51;35.96;99239.78;4504131;31;20071;-82
2022/01/07 11:04:09;;;;;;;11.75;3.00;;;;;;;5.50;35.92;99232.84;4497296;31;20094;-82
2022/01/07 11:06:36;;;;;;;10.57;3.08;;;;;;;5.54;35.56;99237.97;4489799;31;20119;-82
2022/01/07 11:09:03;;;;;;;9.85;2.97;;;;;;;5.43;35.81;99227.81;4489734;31;20095;-82
2022/01/07 11:11:30;;;;;;;8.90;2.60;;;;;;;5.42;35.68;99226.94;4489672;31;20075;-82
2022/01/07 11:14:01;;;;;;;11.35;3.00;;;;;;;5.46;35.33;99227.72;4504110;31;20106;-82
2022/01/07 11:16:26;;;;;;;8.73;2.70;;;;;;;5.58;35.26;99222.19;4489604;31;20130;-82
2022/01/07 11:18:52;;;;;;;10.18;3.15;;;;;;;5.37;35.28;99222.72;4503821;31;20359;-82
2022/01/07 11:21:18;;;;;;;10.85;3.50;;;;;;;5.40;35.50;99218.28;4503771;31;20329;-82
2022/01/07 11:23:45;;;;;;;12.80;3.28;;;;;;;5.45;35.54;99219.03;4489273;31;20091;-82
2022/01/07 11:26:13;;;;;;;10.35;3.62;;;;;;;5.41;35.69;99224.37;4489570;31;20118;-82
2022/01/07 11:28:53;;;;;;;;;;;;;;;5.32;35.93;99208.03;4504186;31;20096;-82
2022/01/07 11:31:19;;;;;;;10.20;3.20;;;;;;;5.47;35.81;99204.16;4503902;31;19975;-82
2022/01/07 11:33:44;;;;;;;10.07;3.12;;;;;;;5.54;35.76;99209.22;4503729;31;20075;-82
2022/01/07 11:36:33;;;;;;;11.05;3.25;;;;;;;5.42;35.98;99202.56;4503673;31;20083;-82
2022/01/07 11:39:03;;;;;;;10.52;3.05;;;;;;;5.49;35.96;99197.16;4504053;31;20083;-82
2022/01/07 11:41:53;;;;;;;10.65;3.22;;;;;;;5.49;35.79;99202.38;4489776;31;20079;-82
2022/01/07 11:44:26;;;;;;;11.35;3.62;;;;;;;5.51;35.40;99192.72;4489656;31;20431;-82
2022/01/07 11:46:52;;;;;;;10.68;3.10;;;;;;;5.47;35.61;99192.87;4476321;31;20108;-82
2022/01/07 11:49:33;;;;;;;9.93;2.87;;;;;;;5.54;35.54;99183.94;4489153;31;20513;-82